createdAt,value
2018-05-31T00:02:05.497Z,101150.34
2018-05-31T00:04:33.045Z,101152.07
2018-05-31T00:07:00.588Z,101143.19
2018-05-31T00:09:28.776Z,101142.86
2018-05-31T00:11:56.457Z,101142.39
2018-05-31T00:14:24.031Z,101146.98
2018-05-31T00:16:52.262Z,101144.63
2018-05-31T00:19:19.827Z,101145.98
2018-05-31T00:21:48.267Z,101143.41
2018-05-31T00:24:15.813Z,101143.41
2018-05-31T00:26:43.329Z,101149.73
2018-05-31T00:29:10.928Z,101150.94
2018-05-31T00:31:38.794Z,101138.91
2018-05-31T00:34:06.840Z,101140.23
2018-05-31T00:36:34.448Z,101139.23
2018-05-31T00:39:02.922Z,101139.35
2018-05-31T00:41:30.491Z,101130.98
2018-05-31T00:43:58.027Z,101130.55
2018-05-31T00:46:25.577Z,101125.19
2018-05-31T00:48:53.454Z,101120.69
2018-05-31T00:51:21.130Z,101120.55
2018-05-31T00:53:48.735Z,101119.22
2018-05-31T00:56:17.174Z,101114.95
2018-05-31T00:58:45.348Z,101106.80
2018-05-31T01:01:12.887Z,101112.89
2018-05-31T01:03:40.602Z,101101.95
2018-05-31T01:06:08.167Z,101099.66
2018-05-31T01:08:35.714Z,101106.77
2018-05-31T01:11:03.261Z,101094.03
2018-05-31T01:13:30.782Z,101090.81
2018-05-31T01:15:58.377Z,101093.63
2018-05-31T01:18:25.899Z,101089.78
2018-05-31T01:20:53.427Z,101085.83
2018-05-31T01:23:21.064Z,101088.25
2018-05-31T01:25:48.735Z,101086.75
2018-05-31T01:28:16.310Z,101085.81
2018-05-31T01:30:43.839Z,101084.23
2018-05-31T01:33:11.463Z,101083.00
2018-05-31T01:35:39.258Z,101086.25
2018-05-31T01:41:05.705Z,101091.98
2018-05-31T01:43:33.241Z,101085.06
2018-05-31T01:46:00.784Z,101082.70
2018-05-31T01:48:28.703Z,101081.50
2018-05-31T01:50:56.231Z,101078.48
2018-05-31T01:53:23.773Z,101080.08
2018-05-31T01:55:51.281Z,101077.14
2018-05-31T01:58:18.838Z,101076.73
2018-05-31T02:00:46.355Z,101079.02
2018-05-31T02:03:13.915Z,101077.25
2018-05-31T02:05:41.553Z,101076.84
2018-05-31T02:08:09.397Z,101073.23
2018-05-31T02:10:36.945Z,101074.42
2018-05-31T02:13:04.492Z,101076.19
2018-05-31T02:15:32.099Z,101079.62
2018-05-31T02:18:00.172Z,101077.31
2018-05-31T02:20:27.715Z,101087.92
2018-05-31T02:22:55.256Z,101080.40
2018-05-31T02:25:22.783Z,101084.02
2018-05-31T02:27:50.369Z,101083.18
2018-05-31T02:30:17.914Z,101088.66
2018-05-31T02:32:45.470Z,101084.95
2018-05-31T02:35:13.820Z,101094.63
2018-05-31T02:37:41.405Z,101091.80
2018-05-31T02:40:09.220Z,101094.73
2018-05-31T02:42:36.742Z,101090.61
2018-05-31T02:45:04.551Z,101090.44
2018-05-31T02:47:32.169Z,101087.73
2018-05-31T02:49:59.789Z,101080.10
2018-05-31T02:52:27.349Z,101080.56
2018-05-31T02:54:54.902Z,101079.86
2018-05-31T02:57:22.441Z,101089.02
2018-05-31T02:59:50.033Z,101093.92
2018-05-31T03:02:17.595Z,101096.28
2018-05-31T03:04:45.107Z,101094.09
2018-05-31T03:07:12.628Z,101102.67
2018-05-31T03:09:40.739Z,101096.23
2018-05-31T03:12:08.315Z,101105.55
2018-05-31T03:14:35.846Z,101100.91
2018-05-31T03:17:03.760Z,101095.91
2018-05-31T03:19:31.318Z,101096.86
2018-05-31T03:21:58.830Z,101095.50
2018-05-31T03:24:26.754Z,101090.87
2018-05-31T03:26:54.264Z,101092.48
2018-05-31T03:29:22.070Z,101096.38
2018-05-31T03:31:49.662Z,101091.23
2018-05-31T03:34:17.173Z,101094.42
2018-05-31T03:36:44.714Z,101094.84
2018-05-31T03:39:12.621Z,101089.28
2018-05-31T03:41:40.181Z,101091.88
2018-05-31T03:44:07.715Z,101091.41
2018-05-31T03:46:35.263Z,101091.53
2018-05-31T03:49:03.894Z,101095.13
2018-05-31T03:51:31.765Z,101099.64
2018-05-31T03:53:59.311Z,101095.98
2018-05-31T03:56:27.581Z,101102.00
2018-05-31T03:58:55.108Z,101093.63
2018-05-31T04:01:22.928Z,101086.62
2018-05-31T04:03:50.536Z,101086.27
2018-05-31T04:06:18.084Z,101088.19
2018-05-31T04:08:45.630Z,101091.30
2018-05-31T04:11:13.461Z,101093.84
2018-05-31T04:13:41.015Z,101089.72
2018-05-31T04:16:08.565Z,101097.09
2018-05-31T04:18:36.132Z,101095.50
2018-05-31T04:21:03.669Z,101100.02
2018-05-31T04:23:31.214Z,101090.55
2018-05-31T04:25:58.755Z,101093.67
2018-05-31T04:28:26.298Z,101097.53
2018-05-31T04:30:54.062Z,101102.83
2018-05-31T04:33:21.593Z,101095.52
2018-05-31T04:35:49.395Z,101108.52
2018-05-31T04:38:17.295Z,101107.98
2018-05-31T04:40:44.831Z,101108.27
2018-05-31T04:43:12.371Z,101113.12
2018-05-31T04:45:39.913Z,101115.44
2018-05-31T04:48:07.719Z,101111.25
2018-05-31T04:50:35.301Z,101110.72
2018-05-31T04:53:03.087Z,101111.95
2018-05-31T04:55:30.707Z,101109.83
2018-05-31T04:57:58.264Z,101112.84
2018-05-31T05:00:26.498Z,101108.52
2018-05-31T05:02:54.398Z,101104.97
2018-05-31T05:05:23.801Z,101108.64
2018-05-31T05:07:51.347Z,101112.08
2018-05-31T05:10:18.939Z,101112.18
2018-05-31T05:12:46.470Z,101118.64
2018-05-31T05:15:14.026Z,101125.02
2018-05-31T05:17:41.557Z,101122.38
2018-05-31T05:20:09.082Z,101120.11
2018-05-31T05:22:36.609Z,101114.23
2018-05-31T05:25:04.130Z,101114.59
2018-05-31T05:27:31.683Z,101113.28
2018-05-31T05:30:00.015Z,101113.44
2018-05-31T05:32:27.639Z,101115.47
2018-05-31T05:34:55.450Z,101106.33
2018-05-31T05:37:22.985Z,101112.59
2018-05-31T05:39:50.517Z,101121.19
2018-05-31T05:42:18.036Z,101114.73
2018-05-31T05:44:45.568Z,101120.55
2018-05-31T05:47:13.129Z,101119.98
2018-05-31T05:49:40.677Z,101125.31
2018-05-31T05:52:08.215Z,101129.37
2018-05-31T05:54:35.733Z,101130.16
2018-05-31T05:57:03.279Z,101131.75
2018-05-31T05:59:30.825Z,101132.82
2018-05-31T06:01:58.361Z,101135.75
2018-05-31T06:04:25.991Z,101135.88
2018-05-31T06:06:53.618Z,101135.52
2018-05-31T06:09:21.317Z,101144.89
2018-05-31T06:11:49.204Z,101143.33
2018-05-31T06:14:16.771Z,101143.13
2018-05-31T06:16:44.339Z,101139.91
2018-05-31T06:19:13.293Z,101140.64
2018-05-31T06:21:40.975Z,101138.45
2018-05-31T06:24:08.609Z,101138.53
2018-05-31T06:26:36.149Z,101133.85
2018-05-31T06:29:03.697Z,101139.63
2018-05-31T06:31:31.593Z,101137.08
2018-05-31T06:33:59.190Z,101145.27
2018-05-31T06:36:26.726Z,101146.41
2018-05-31T06:38:54.234Z,101149.03
2018-05-31T06:41:21.977Z,101147.00
2018-05-31T06:43:49.481Z,101144.25
2018-05-31T06:46:17.280Z,101140.10
2018-05-31T06:48:44.811Z,101142.50
2018-05-31T06:51:12.345Z,101136.64
2018-05-31T06:53:39.947Z,101136.27
2018-05-31T06:56:07.503Z,101138.65
2018-05-31T06:58:35.278Z,101132.77
2018-05-31T07:01:02.828Z,101144.23
2018-05-31T07:03:30.354Z,101142.10
2018-05-31T07:05:57.927Z,101145.00
2018-05-31T07:08:25.440Z,101141.54
2018-05-31T07:10:53.072Z,101135.91
2018-05-31T07:13:20.738Z,101145.52
2018-05-31T07:15:49.488Z,101150.01
2018-05-31T07:18:17.033Z,101137.17
2018-05-31T07:20:44.555Z,101140.09
2018-05-31T07:23:12.540Z,101143.45
2018-05-31T07:25:40.100Z,101140.92
2018-05-31T07:28:07.638Z,101143.28
2018-05-31T07:30:35.166Z,101143.26
2018-05-31T07:33:02.703Z,101146.03
2018-05-31T07:35:30.541Z,101154.52
2018-05-31T07:37:58.074Z,101142.78
2018-05-31T07:40:25.581Z,101138.37
2018-05-31T07:42:53.119Z,101141.73
2018-05-31T07:45:20.650Z,101139.12
2018-05-31T07:47:48.182Z,101145.89
2018-05-31T07:50:16.003Z,101147.23
2018-05-31T07:52:43.534Z,101150.62
2018-05-31T07:55:11.049Z,101152.80
2018-05-31T07:57:38.552Z,101151.47
2018-05-31T08:00:06.345Z,101150.81
2018-05-31T08:02:33.901Z,101154.06
2018-05-31T08:05:01.534Z,101157.91
2018-05-31T08:07:29.156Z,101142.09
2018-05-31T08:09:56.693Z,101156.88
2018-05-31T08:12:24.210Z,101149.83
2018-05-31T08:14:51.886Z,101152.72
2018-05-31T08:17:19.404Z,101154.34
2018-05-31T08:19:46.974Z,101162.34
2018-05-31T08:22:14.487Z,101157.53
2018-05-31T08:24:42.019Z,101159.77
2018-05-31T08:27:09.567Z,101161.70
2018-05-31T08:29:37.125Z,101155.83
2018-05-31T08:32:04.653Z,101158.05
2018-05-31T08:34:32.181Z,101161.23
2018-05-31T08:36:59.958Z,101156.11
2018-05-31T08:39:27.500Z,101160.42
2018-05-31T08:41:55.001Z,101152.77
2018-05-31T08:44:22.610Z,101152.04
2018-05-31T08:46:50.137Z,101155.20
2018-05-31T08:49:17.697Z,101152.48
2018-05-31T08:51:45.634Z,101151.14
2018-05-31T08:54:13.147Z,101161.34
2018-05-31T08:56:40.656Z,101153.49
2018-05-31T08:59:08.191Z,101154.45
2018-05-31T09:01:35.751Z,101153.25
2018-05-31T09:04:03.264Z,101161.02
2018-05-31T09:06:30.795Z,101158.15
2018-05-31T09:08:58.320Z,101151.77
2018-05-31T09:11:25.833Z,101146.20
2018-05-31T09:13:53.397Z,101146.91
2018-05-31T09:16:20.904Z,101139.33
2018-05-31T09:18:48.510Z,101135.04
2018-05-31T09:21:16.051Z,101148.97
2018-05-31T09:23:43.577Z,101140.74
2018-05-31T09:26:11.069Z,101139.31
2018-05-31T09:28:39.027Z,101136.80
2018-05-31T09:31:06.461Z,101134.19
2018-05-31T09:33:34.266Z,101136.08
2018-05-31T09:36:01.827Z,101129.97
2018-05-31T09:38:29.351Z,101130.11
2018-05-31T09:40:56.860Z,101135.44
2018-05-31T09:43:24.394Z,101127.67
2018-05-31T09:45:51.928Z,101127.56
2018-05-31T09:48:19.437Z,101129.30
2018-05-31T09:50:46.978Z,101120.09
2018-05-31T09:53:14.491Z,101123.05
2018-05-31T09:55:41.995Z,101127.48
2018-05-31T09:58:09.608Z,101131.41
2018-05-31T10:00:38.140Z,101125.06
2018-05-31T10:03:05.688Z,101128.38
2018-05-31T10:05:33.225Z,101130.18
2018-05-31T10:08:00.752Z,101118.47
2018-05-31T10:10:28.430Z,101119.03
2018-05-31T10:12:55.934Z,101117.23
2018-05-31T10:15:23.544Z,101119.09
2018-05-31T10:17:51.175Z,101117.52
2018-05-31T10:20:18.693Z,101118.73
2018-05-31T10:22:46.281Z,101120.48
2018-05-31T10:25:13.810Z,101122.61
2018-05-31T10:27:41.352Z,101113.59
2018-05-31T10:30:08.952Z,101105.20
2018-05-31T10:32:36.419Z,101101.12
2018-05-31T10:35:04.429Z,101100.56
2018-05-31T10:37:32.009Z,101097.65
2018-05-31T10:39:59.525Z,101088.78
2018-05-31T10:42:27.147Z,101097.16
2018-05-31T10:44:54.665Z,101089.80
2018-05-31T10:47:22.174Z,101089.02
2018-05-31T10:49:49.971Z,101087.25
2018-05-31T10:52:17.480Z,101079.84
2018-05-31T10:54:45.037Z,101086.83
2018-05-31T10:57:12.590Z,101076.83
2018-05-31T10:59:40.101Z,101085.40
2018-05-31T11:02:07.772Z,101078.33
2018-05-31T11:04:35.320Z,101078.07
2018-05-31T11:07:02.838Z,101081.09
2018-05-31T11:09:30.360Z,101074.07
2018-05-31T11:11:57.949Z,101070.98
2018-05-31T11:14:25.477Z,101070.13
2018-05-31T11:16:53.071Z,101072.13
2018-05-31T11:19:20.580Z,101068.95
2018-05-31T11:21:48.124Z,101061.19
2018-05-31T11:24:15.926Z,101057.77
2018-05-31T11:26:43.425Z,101062.84
2018-05-31T11:29:11.159Z,101061.36
2018-05-31T11:31:39.019Z,101063.50
2018-05-31T11:34:06.532Z,101060.39
2018-05-31T11:36:34.346Z,101050.15
2018-05-31T11:39:01.856Z,101057.17
2018-05-31T11:41:29.605Z,101053.72
2018-05-31T11:43:57.120Z,101046.95
2018-05-31T11:46:24.643Z,101046.38
2018-05-31T11:48:52.169Z,101050.02
2018-05-31T11:51:19.703Z,101047.81
2018-05-31T11:53:47.292Z,101042.83
2018-05-31T11:56:15.369Z,101035.39
2018-05-31T11:58:42.892Z,101036.58
2018-05-31T12:01:13.457Z,101038.53
2018-05-31T12:03:40.999Z,101030.37
2018-05-31T12:06:10.563Z,101032.33
2018-05-31T12:08:38.148Z,101029.89
2018-05-31T12:11:05.696Z,101029.16
2018-05-31T12:13:33.321Z,101026.72
2018-05-31T12:16:00.881Z,101030.14
2018-05-31T12:18:28.435Z,101033.26
2018-05-31T12:20:55.948Z,101036.87
2018-05-31T12:23:24.579Z,101023.73
2018-05-31T12:25:52.226Z,101025.89
2018-05-31T12:28:20.704Z,101029.83
2018-05-31T12:30:48.283Z,101028.61
2018-05-31T12:33:15.868Z,101018.83
2018-05-31T12:35:43.651Z,101015.95
2018-05-31T12:38:11.457Z,101017.23
2018-05-31T12:40:38.986Z,101017.28
2018-05-31T12:43:06.940Z,101015.38
2018-05-31T12:45:34.541Z,101009.14
2018-05-31T12:48:02.077Z,101011.25
2018-05-31T12:50:30.642Z,101002.66
2018-05-31T12:52:58.146Z,101005.55
2018-05-31T12:55:26.053Z,101009.80
2018-05-31T12:57:53.575Z,101007.58
2018-05-31T13:00:21.341Z,101008.31
2018-05-31T13:02:48.882Z,101009.95
2018-05-31T13:05:16.530Z,101007.23
2018-05-31T13:07:44.073Z,101008.66
2018-05-31T13:10:11.619Z,101000.84
2018-05-31T13:12:39.141Z,101000.25
2018-05-31T13:15:06.698Z,101000.32
2018-05-31T13:17:34.222Z,101002.27
2018-05-31T13:20:02.145Z,100994.30
2018-05-31T13:22:29.714Z,100992.05
2018-05-31T13:24:57.254Z,101003.70
2018-05-31T13:27:24.832Z,100999.67
2018-05-31T13:29:52.466Z,100995.34
2018-05-31T13:32:20.028Z,100999.92
2018-05-31T13:34:47.552Z,100995.72
2018-05-31T13:37:15.113Z,100991.79
2018-05-31T13:39:42.638Z,100996.23
2018-05-31T13:42:11.958Z,100989.75
2018-05-31T13:44:39.649Z,100979.22
2018-05-31T13:47:07.228Z,100987.67
2018-05-31T13:49:34.828Z,100981.98
2018-05-31T13:52:02.383Z,100984.28
2018-05-31T13:54:29.911Z,100980.69
2018-05-31T13:56:57.439Z,100979.02
2018-05-31T13:59:25.002Z,100981.05
2018-05-31T14:01:53.024Z,100980.97
2018-05-31T14:04:20.886Z,100972.30
2018-05-31T14:06:48.501Z,100974.52
2018-05-31T14:09:16.059Z,100973.78
2018-05-31T14:11:43.699Z,100975.69
2018-05-31T14:14:11.314Z,100964.84
2018-05-31T14:16:38.915Z,100968.98
2018-05-31T14:19:06.440Z,100966.82
2018-05-31T14:21:34.023Z,100968.59
2018-05-31T14:24:01.550Z,100964.02
2018-05-31T14:26:29.091Z,100964.09
2018-05-31T14:28:56.627Z,100962.66
2018-05-31T14:31:24.161Z,100953.20
2018-05-31T14:33:51.936Z,100950.60
2018-05-31T14:36:19.480Z,100945.69
2018-05-31T14:38:47.013Z,100946.48
2018-05-31T14:41:14.535Z,100943.91
2018-05-31T14:43:42.105Z,100942.69
2018-05-31T14:46:09.696Z,100946.34
2018-05-31T14:48:37.309Z,100946.27
2018-05-31T14:51:04.868Z,100946.06
2018-05-31T14:53:32.391Z,100950.84
2018-05-31T14:55:59.989Z,100949.54
2018-05-31T14:58:27.521Z,100950.28
2018-05-31T15:00:55.051Z,100942.64
2018-05-31T15:03:22.586Z,100941.28
2018-05-31T15:05:50.147Z,100947.73
2018-05-31T15:08:17.773Z,100944.17
2018-05-31T15:10:45.289Z,100944.67
2018-05-31T15:13:12.926Z,100941.78
2018-05-31T15:15:40.447Z,100937.71
2018-05-31T15:18:07.967Z,100938.20
2018-05-31T15:20:35.507Z,100929.99
2018-05-31T15:23:03.047Z,100926.93
2018-05-31T15:25:31.321Z,100929.39
2018-05-31T15:27:58.844Z,100917.05
2018-05-31T15:30:26.488Z,100925.27
2018-05-31T15:32:54.025Z,100927.38
2018-05-31T15:35:22.560Z,100922.81
2018-05-31T15:37:50.087Z,100921.70
2018-05-31T15:40:17.648Z,100922.97
2018-05-31T15:42:45.237Z,100916.84
2018-05-31T15:45:12.743Z,100911.70
2018-05-31T15:47:40.293Z,100916.64
2018-05-31T15:50:07.834Z,100916.84
2018-05-31T15:52:35.377Z,100911.75
2018-05-31T15:55:02.900Z,100910.14
2018-05-31T15:57:30.465Z,100915.00
2018-05-31T15:59:57.981Z,100906.66
2018-05-31T16:02:25.496Z,100913.51
2018-05-31T16:04:53.305Z,100910.91
2018-05-31T16:07:21.115Z,100914.17
2018-05-31T16:09:48.626Z,100918.15
2018-05-31T16:12:16.178Z,100918.56
2018-05-31T16:14:43.770Z,100906.24
2018-05-31T16:17:11.295Z,100902.41
2018-05-31T16:19:38.852Z,100897.53
2018-05-31T16:22:06.399Z,100899.88
2018-05-31T16:24:34.038Z,100900.80
2018-05-31T16:27:01.739Z,100904.24
2018-05-31T16:29:29.259Z,100901.48
2018-05-31T16:31:56.771Z,100908.34
2018-05-31T16:34:24.319Z,100908.13
2018-05-31T16:36:51.996Z,100907.77
2018-05-31T16:39:19.544Z,100907.22
2018-05-31T16:41:47.289Z,100909.66
2018-05-31T16:44:14.804Z,100908.22
2018-05-31T16:46:42.884Z,100909.50
2018-05-31T16:49:10.787Z,100910.88
2018-05-31T16:51:38.333Z,100907.05
2018-05-31T16:54:06.169Z,100908.20
2018-05-31T16:56:33.702Z,100909.25
2018-05-31T16:59:01.394Z,100907.16
2018-05-31T17:01:28.893Z,100898.56
2018-05-31T17:03:56.442Z,100895.95
2018-05-31T17:06:23.955Z,100899.48
2018-05-31T17:08:52.041Z,100895.12
2018-05-31T17:11:19.578Z,100901.17
2018-05-31T17:13:47.473Z,100906.97
2018-05-31T17:16:15.063Z,100907.31
2018-05-31T17:18:42.603Z,100902.25
2018-05-31T17:21:10.119Z,100903.30
2018-05-31T17:23:37.637Z,100905.84
2018-05-31T17:26:05.197Z,100904.23
2018-05-31T17:28:32.840Z,100902.70
2018-05-31T17:31:00.361Z,100912.25
2018-05-31T17:33:27.897Z,100911.30
2018-05-31T17:35:55.749Z,100915.10
2018-05-31T17:38:23.534Z,100908.16
2018-05-31T17:40:51.118Z,100913.38
2018-05-31T17:43:18.669Z,100905.71
2018-05-31T17:45:46.191Z,100915.47
2018-05-31T17:48:13.786Z,100913.31
2018-05-31T17:50:41.308Z,100919.87
2018-05-31T17:53:08.809Z,100921.50
2018-05-31T17:55:36.377Z,100918.34
2018-05-31T17:58:04.526Z,100915.75
2018-05-31T18:00:32.083Z,100916.20
2018-05-31T18:02:59.685Z,100912.18
2018-05-31T18:05:27.465Z,100913.37
2018-05-31T18:07:55.036Z,100906.94
2018-05-31T18:10:23.430Z,100914.34
2018-05-31T18:12:51.161Z,100911.97
2018-05-31T18:15:18.663Z,100914.67
2018-05-31T18:17:46.206Z,100913.34
2018-05-31T18:20:13.776Z,100912.33
2018-05-31T18:22:41.300Z,100909.05
2018-05-31T18:25:08.856Z,100913.89
2018-05-31T18:27:36.356Z,100916.03
2018-05-31T18:30:03.896Z,100920.45
2018-05-31T18:32:31.471Z,100921.64
2018-05-31T18:34:59.032Z,100920.94
2018-05-31T18:37:26.785Z,100928.67
2018-05-31T18:39:54.355Z,100926.52
2018-05-31T18:42:21.954Z,100927.55
2018-05-31T18:44:49.478Z,100931.70
2018-05-31T18:47:17.036Z,100933.11
2018-05-31T18:49:44.895Z,100934.55
2018-05-31T18:52:12.392Z,100938.86
2018-05-31T18:54:39.999Z,100932.61
2018-05-31T18:57:07.567Z,100939.52
2018-05-31T18:59:35.065Z,100938.73
2018-05-31T19:02:02.597Z,100946.33
2018-05-31T19:04:30.135Z,100941.83
2018-05-31T19:06:57.692Z,100943.65
2018-05-31T19:09:30.712Z,100941.78
2018-05-31T19:11:58.254Z,100944.41
2018-05-31T19:14:25.854Z,100945.44
2018-05-31T19:16:53.395Z,100951.67
2018-05-31T19:19:26.888Z,100950.59
2018-05-31T19:21:54.559Z,100960.91
2018-05-31T19:24:27.757Z,100967.52
2018-05-31T19:26:55.285Z,100968.34
2018-05-31T19:29:22.849Z,100971.03
2018-05-31T19:31:50.412Z,100980.24
2018-05-31T19:34:18.286Z,100976.70
2018-05-31T19:36:51.406Z,100986.75
2018-05-31T19:39:18.994Z,100984.45
2018-05-31T19:41:46.517Z,100990.47
2018-05-31T19:44:19.478Z,100988.30
2018-05-31T19:46:46.997Z,100988.88
2018-05-31T19:49:14.610Z,100996.31
2018-05-31T19:51:48.140Z,100994.17
2018-05-31T19:54:15.896Z,100991.02
2018-05-31T19:56:43.420Z,100997.77
2018-05-31T19:59:16.696Z,100994.90
2018-05-31T20:01:49.810Z,100993.81
2018-05-31T20:04:17.378Z,100990.86
2018-05-31T20:06:45.012Z,100995.00
2018-05-31T20:09:12.587Z,100994.80
2018-05-31T20:11:40.161Z,100997.56
2018-05-31T20:14:07.697Z,101001.97
2018-05-31T20:16:35.314Z,100999.02
2018-05-31T20:19:02.849Z,100995.18
2018-05-31T20:21:30.628Z,100988.48
2018-05-31T20:23:58.144Z,100993.63
2018-05-31T20:26:25.866Z,100997.50
2018-05-31T20:28:53.388Z,100997.02
2018-05-31T20:31:20.924Z,100999.37
2018-05-31T20:33:48.730Z,101002.27
2018-05-31T20:36:16.389Z,101003.97
2018-05-31T20:38:43.935Z,101002.21
2018-05-31T20:41:11.516Z,100996.59
2018-05-31T20:43:39.060Z,100998.55
2018-05-31T20:46:06.584Z,100997.74
2018-05-31T20:48:34.239Z,101004.52
2018-05-31T20:51:01.755Z,100999.87
2018-05-31T20:53:29.513Z,100999.53
2018-05-31T20:55:57.151Z,101005.72
2018-05-31T20:58:24.686Z,101001.39
2018-05-31T21:00:53.010Z,101006.89
2018-05-31T21:03:20.541Z,101002.43
2018-05-31T21:05:48.119Z,101000.82
2018-05-31T21:08:15.652Z,101000.33
2018-05-31T21:10:43.313Z,100998.02
2018-05-31T21:13:11.132Z,100996.83
2018-05-31T21:15:38.892Z,100993.83
2018-05-31T21:18:06.452Z,101001.55
2018-05-31T21:20:33.966Z,100995.75
2018-05-31T21:23:01.496Z,101000.06
2018-05-31T21:25:31.671Z,101000.61
2018-05-31T21:27:59.230Z,100996.37
2018-05-31T21:30:26.742Z,100999.42
2018-05-31T21:32:54.297Z,100996.59
2018-05-31T21:35:21.828Z,100997.56
2018-05-31T21:37:49.433Z,100999.22
2018-05-31T21:40:16.986Z,100997.89
2018-05-31T21:42:44.524Z,100997.20
2018-05-31T21:45:12.051Z,100994.75
2018-05-31T21:47:39.617Z,100995.31
2018-05-31T21:50:07.162Z,100996.59
2018-05-31T21:52:34.684Z,100997.70
2018-05-31T21:55:02.235Z,100993.73
2018-05-31T21:57:29.754Z,100999.22
2018-05-31T21:59:57.261Z,101000.91
2018-05-31T22:02:25.115Z,100994.88
2018-05-31T22:04:52.621Z,101000.52
2018-05-31T22:07:20.126Z,100995.75
2018-05-31T22:09:47.720Z,100993.01
2018-05-31T22:12:15.260Z,100995.76
2018-05-31T22:14:42.841Z,100996.03
2018-05-31T22:17:10.367Z,101002.52
2018-05-31T22:19:38.133Z,100994.02
2018-05-31T22:22:05.668Z,100998.55
2018-05-31T22:24:33.219Z,100995.82
2018-05-31T22:27:01.124Z,101000.39
2018-05-31T22:29:28.728Z,100998.33
2018-05-31T22:31:56.278Z,100998.06
2018-05-31T22:34:23.785Z,100996.56
2018-05-31T22:36:51.294Z,100994.83
2018-05-31T22:39:18.845Z,100986.17
2018-05-31T22:41:46.346Z,100986.61
2018-05-31T22:44:13.877Z,100980.32
2018-05-31T22:46:41.469Z,100978.41
2018-05-31T22:49:08.985Z,100981.84
2018-05-31T22:51:36.516Z,100982.39
2018-05-31T22:54:04.178Z,100983.94
2018-05-31T22:56:31.685Z,100985.86
2018-05-31T22:58:59.220Z,100988.50
2018-05-31T23:01:26.761Z,100990.01
2018-05-31T23:03:54.287Z,100987.95
2018-05-31T23:06:21.824Z,100988.55
2018-05-31T23:08:49.391Z,100989.23
2018-05-31T23:11:16.929Z,100994.57
2018-05-31T23:13:44.441Z,100986.77
2018-05-31T23:16:11.966Z,100988.17
2018-05-31T23:18:39.745Z,100990.50
2018-05-31T23:21:07.352Z,100992.42
2018-05-31T23:23:34.881Z,100991.36
2018-05-31T23:26:02.568Z,100987.80
2018-05-31T23:28:30.078Z,100985.75
2018-05-31T23:30:57.712Z,100990.30
2018-05-31T23:33:25.258Z,100990.45
2018-05-31T23:35:52.826Z,100989.76
2018-05-31T23:38:20.343Z,100987.84
2018-05-31T23:40:47.853Z,100988.29
2018-05-31T23:43:15.393Z,100985.41
2018-05-31T23:45:43.186Z,100982.67
2018-05-31T23:48:11.069Z,100985.14
2018-05-31T23:50:38.590Z,100984.08
2018-05-31T23:53:06.093Z,100985.72
2018-05-31T23:55:33.633Z,100980.82
2018-05-31T23:58:01.481Z,100988.48
